Sim-Planet VA

Sim-Planet Nouvel Horizon. By: Anthony Pay
Since 2020.




 METAR ET TAF INFORMATION
METAR FOR LFBH
ADDS - METARS form results

(1944 UTC 28 January 2022)
Data provider http://aviationweather.gov/metar/data/
 
METAR text: LFBH 281930Z AUTO 33003KT 2900 BR OVC001 07/07 Q1038 TEMPO 3000 BR BKN003
Conditions at: LFBH (LA ROCHELLE/LALE, FR) observed 1930 UTC 28 January 2022
Temperature: 7.0°C (45°F)
Dewpoint: 7.0°C (45°F) [RH = 100%]
Pressure (altimeter): 30.65 inches Hg (1038.0 mb)
Winds: from the NNW (330 degrees) at 3 MPH (3 knots; 1.5 m/s)
Visibility: 1.80 miles (2.90 km)
Ceiling: 100 feet AGL
Clouds: overcast cloud deck at 100 feet AGL
Weather: BR  (mist)

METAR text: LFBH 281900Z AUTO 32003KT 5000 BR SCT001 OVC024 07/07 Q1038 NOSIG
Conditions at: LFBH (LA ROCHELLE/LALE, FR) observed 1900 UTC 28 January 2022
Temperature: 7.0°C (45°F)
Dewpoint: 7.0°C (45°F) [RH = 100%]
Pressure (altimeter): 30.65 inches Hg (1038.0 mb)
Winds: from the NW (320 degrees) at 3 MPH (3 knots; 1.5 m/s)
Visibility: 3 miles ( 5 km)
Ceiling: 2400 feet AGL
Clouds: scattered clouds at 100 feet AGL
overcast cloud deck at 2400 feet AGL
Weather: BR  (mist)

Forecast for: AMD
Text: TAF AMD LFBH 281908Z 2819/2918 VRB02KT 8000 NSW BKN015
Forecast period: 1900 UTC 28 January 2022 to 0400 UTC 29 January 2022
Forecast type: FROM: standard forecast or significant change
Winds: variable direction winds at 2 MPH (2 knots; 1.0 m/s)
Visibility: 5 miles (8 km)
Ceiling: 1500 feet AGL
Clouds: broken clouds at 1500 feet AGL
Weather: NSW  (no significant weather)
Text: TEMPO 2819/2904 3000 BR BKN003
Forecast period: 1900 UTC 28 January 2022 to 0400 UTC 29 January 2022
Forecast type: TEMPORARY: The following changes expected for less than half the time period
Visibility: 1.86 miles (2.99 km)
Ceiling: 300 feet AGL
Clouds: broken clouds at 300 feet AGL
Weather: BR  (mist)
Text: BECMG 2904/2906 19005KT BKN015
Forecast period: 0400 to 1800 UTC 29 January 2022
Forecast type: BECOMING: Conditions expected to become as follows by 0600 UTC 29 January 2022
Winds: from the S (190 degrees) at 6 MPH (5 knots; 2.6 m/s)
Visibility: 5 miles (8 km)
Ceiling: 1500 feet AGL
Clouds: broken clouds at 1500 feet AGL
Weather: NSW  (no significant weather)

 AÉROPORT DE AÉROPORT

 INFORMATIONS DE PISTE
Piste 10 Longueur de la piste 7398 ft Largeur de la piste 148 ft
Élévation de la piste 59 ft Seuil de la piste déplacés 1033 ft Runway heading 93
Piste 28 Longueur de la piste 7398 ft Largeur de la piste 148 ft
Élévation de la piste 74 ft Seuil de la piste déplacés 1532 ft Runway heading 273

 AÉROPORT FRÉQUENCES
Type APP Nom LA ROCHELL Féquence 124.2 MHZ
Type ATIS Nom LA ROCHELL Féquence 126.875 MHZ
Type TWR Nom LA ROCHELL Féquence 118 MHZ

 SIDA DE NAVIGATION

Nos Partenaires